Time;durP1;ratioP1;P1;durP2;ratioP2;P2;SDS_P1;SDS_P2;PMS_P1;PMS_P2;Temp;Humidity;BMP_temperature;BMP_pressure;BME280_temperature;BME280_humidity;BME280_pressure;Samples;Min_cycle;Max_cycle;Signal;HPM_P1;HPM_P2
2021/12/20 00:01:15;;;;;;;55.20;27.05;;;-0.50;99.90;;;;;;5051487;27;20045;-80
2021/12/20 00:03:40;;;;;;;24.67;12.57;;;-0.50;99.90;;;;;;5053364;27;20057;-80
2021/12/20 00:06:06;;;;;;;62.05;25.30;;;-0.50;99.90;;;;;;5047490;27;20427;-80
2021/12/20 00:08:32;;;;;;;64.88;28.63;;;-0.50;99.90;;;;;;5047488;27;20381;-80
2021/12/20 00:10:58;;;;;;;22.73;11.80;;;-0.50;99.90;;;;;;5048790;27;20123;-80
2021/12/20 00:13:23;;;;;;;54.00;25.65;;;-0.60;99.90;;;;;;5047024;27;20078;-79
2021/12/20 00:15:50;;;;;;;85.05;40.17;;;-0.50;99.90;;;;;;5030556;28;20078;-79
2021/12/20 00:18:15;;;;;;;93.30;39.67;;;-0.60;99.90;;;;;;5027823;28;20030;-81
2021/12/20 00:20:41;;;;;;;50.67;23.92;;;-0.60;99.90;;;;;;5027736;28;20029;-80
2021/12/20 00:23:07;;;;;;;57.05;23.60;;;-0.60;99.90;;;;;;5028393;27;20147;-81
2021/12/20 00:25:33;;;;;;;38.60;17.27;;;-0.60;99.90;;;;;;5027239;28;20032;-80
2021/12/20 00:28:00;;;;;;;87.50;38.97;;;-0.60;99.90;;;;;;5026381;28;20037;-80
2021/12/20 00:30:27;;;;;;;59.97;28.55;;;-0.60;99.90;;;;;;5028894;28;20054;-80
2021/12/20 00:32:52;;;;;;;42.22;18.80;;;-0.60;99.90;;;;;;5024208;27;20037;-79
2021/12/20 00:35:19;;;;;;;29.58;15.27;;;-0.60;99.90;;;;;;5047165;27;20032;-80
2021/12/20 00:40:30;;;;;;;23.33;11.30;;;-0.50;99.90;;;;;;5028934;28;20037;-80
2021/12/20 00:42:59;;;;;;;18.30;10.18;;;-0.60;99.90;;;;;;5026431;28;20050;-80
2021/12/20 00:45:32;;;;;;;32.97;16.55;;;-0.50;99.90;;;;;;5027333;28;20039;-79
2021/12/20 00:47:59;;;;;;;34.22;16.38;;;-0.50;99.90;;;;;;5028443;28;20050;-80
2021/12/20 00:50:26;;;;;;;33.13;16.83;;;-0.50;99.90;;;;;;5027869;28;20025;-80
2021/12/20 00:52:53;;;;;;;17.92;9.77;;;-0.50;99.90;;;;;;5027095;28;20050;-80
2021/12/20 00:55:21;;;;;;;24.77;13.75;;;-0.60;99.90;;;;;;5033979;28;20013;-81
2021/12/20 00:57:48;;;;;;;17.15;10.30;;;-0.60;99.90;;;;;;5043283;28;20144;-80
2021/12/20 01:00:24;;;;;;;28.92;14.73;;;-0.60;99.90;;;;;;5032528;28;20021;-80
2021/12/20 01:02:51;;;;;;;23.05;10.48;;;-0.60;99.90;;;;;;5033996;28;20037;-79
2021/12/20 01:05:17;;;;;;;27.67;12.50;;;-0.60;99.90;;;;;;5029533;28;20574;-80
2021/12/20 01:07:43;;;;;;;20.58;8.95;;;-0.60;99.90;;;;;;5029256;28;20045;-80
2021/12/20 01:10:10;;;;;;;14.90;8.40;;;-0.60;99.90;;;;;;5027967;28;20176;-82
2021/12/20 01:12:46;;;;;;;16.90;7.53;;;-0.60;99.90;;;;;;5065695;28;20059;-82
2021/12/20 01:15:21;;;;;;;28.80;12.95;;;-0.60;99.90;;;;;;5070012;28;20024;-81
2021/12/20 01:17:48;;;;;;;25.58;10.50;;;-0.60;99.90;;;;;;5068641;28;20051;-79
2021/12/20 01:20:15;;;;;;;26.30;12.45;;;-0.60;99.90;;;;;;5069476;28;20530;-81
2021/12/20 01:22:46;;;;;;;14.40;7.32;;;-0.60;99.90;;;;;;5069607;28;20040;-79
2021/12/20 01:25:13;;;;;;;16.52;8.25;;;-0.50;99.90;;;;;;5068353;28;20509;-81
2021/12/20 01:27:38;;;;;;;20.00;11.15;;;-0.60;99.90;;;;;;5064376;28;20053;-81
2021/12/20 01:30:06;;;;;;;27.35;13.45;;;-0.50;99.90;;;;;;5048258;28;20061;-80
2021/12/20 01:32:32;;;;;;;47.53;25.02;;;-0.50;99.90;;;;;;5048136;28;20021;-79
2021/12/20 01:34:58;;;;;;;27.67;14.13;;;-0.60;99.90;;;;;;5049713;28;20468;-80
2021/12/20 01:37:24;;;;;;;18.63;10.85;;;-0.50;99.90;;;;;;5048377;28;20077;-80
2021/12/20 01:39:50;;;;;;;30.10;16.25;;;-0.50;99.90;;;;;;5047956;28;20021;-79
2021/12/20 01:42:20;;;;;;;23.10;13.82;;;-0.50;99.90;;;;;;5047927;28;20083;-80
2021/12/20 01:44:49;;;;;;;14.10;9.20;;;-0.50;99.90;;;;;;5049500;28;20037;-80
2021/12/20 01:47:15;;;;;;;25.90;14.02;;;-0.50;99.90;;;;;;5047965;28;20021;-80
2021/12/20 01:49:57;;;;;;;14.52;7.78;;;-0.50;99.90;;;;;;5050463;28;20028;-80
2021/12/20 01:52:26;;;;;;;14.80;8.90;;;-0.50;99.90;;;;;;5050683;28;20085;-81
2021/12/20 01:54:53;;;;;;;15.80;8.77;;;-0.50;99.90;;;;;;5051564;28;20440;-80
2021/12/20 01:57:21;;;;;;;15.48;7.50;;;-0.50;99.90;;;;;;5050272;28;20045;-81
2021/12/20 01:59:46;;;;;;;20.35;10.90;;;-0.50;99.90;;;;;;5050279;28;20028;-80
2021/12/20 02:02:12;;;;;;;18.23;9.73;;;-0.50;99.90;;;;;;5051537;28;20033;-80
2021/12/20 02:04:45;;;;;;;10.48;7.22;;;-0.50;99.90;;;;;;5051475;28;20032;-81
2021/12/20 02:07:33;;;;;;;22.48;10.40;;;-0.50;99.90;;;;;;5050198;28;20493;-80
2021/12/20 02:10:00;;;;;;;23.02;11.63;;;-0.50;99.90;;;;;;5051464;28;20508;-80
2021/12/20 02:12:25;;;;;;;17.05;10.13;;;-0.50;99.90;;;;;;5048994;28;20036;-80
2021/12/20 02:14:51;;;;;;;12.25;7.93;;;-0.50;99.90;;;;;;5051291;28;20382;-80
2021/12/20 02:17:16;;;;;;;17.27;9.52;;;-0.50;99.90;;;;;;5051370;28;20024;-80
2021/12/20 02:19:42;;;;;;;15.02;9.10;;;-0.50;99.90;;;;;;5050011;28;20066;-80
2021/12/20 02:22:07;;;;;;;12.40;8.02;;;-0.50;99.90;;;;;;5051071;28;20394;-80
2021/12/20 02:24:33;;;;;;;17.50;9.65;;;-0.50;99.90;;;;;;5049517;28;20090;-80
2021/12/20 02:26:59;;;;;;;17.98;9.18;;;-0.40;99.90;;;;;;5051188;28;20017;-81
2021/12/20 02:29:40;;;;;;;20.38;12.30;;;-0.40;99.90;;;;;;5049650;28;20033;-80
2021/12/20 02:37:56;;;;;;;9.70;7.03;;;-0.50;99.90;;;;;;5071720;28;20040;-81
2021/12/20 02:40:22;;;;;;;10.88;7.35;;;-0.50;99.90;;;;;;5059279;28;20037;-81
2021/12/20 02:42:50;;;;;;;9.05;6.95;;;-0.40;99.90;;;;;;5049178;28;20037;-80
2021/12/20 02:45:16;;;;;;;11.60;7.53;;;-0.50;99.90;;;;;;5049600;28;20037;-80
2021/12/20 02:47:45;;;;;;;10.35;7.30;;;-0.50;99.90;;;;;;5049620;28;20020;-80
2021/12/20 02:50:13;;;;;;;16.35;7.95;;;-0.50;99.90;;;;;;5049270;28;20010;-80
2021/12/20 02:52:40;;;;;;;16.20;8.30;;;-0.50;99.90;;;;;;5050676;28;20498;-80
2021/12/20 02:55:07;;;;;;;13.50;7.90;;;-0.50;99.90;;;;;;5050652;28;20048;-80
2021/12/20 02:57:35;;;;;;;12.02;8.27;;;-0.50;99.90;;;;;;5050823;28;20423;-80
2021/12/20 03:00:01;;;;;;;18.15;10.13;;;-0.50;99.90;;;;;;5049253;28;20475;-80
2021/12/20 03:02:26;;;;;;;27.80;13.05;;;-0.60;99.90;;;;;;5048869;28;20033;-81
2021/12/20 03:04:52;;;;;;;16.88;11.05;;;-0.50;99.90;;;;;;5048873;28;20025;-80
2021/12/20 03:07:24;;;;;;;12.30;7.22;;;-0.50;99.90;;;;;;5048941;28;20021;-80
2021/12/20 03:09:55;;;;;;;15.60;9.17;;;-0.50;99.90;;;;;;5049433;28;20032;-80
2021/12/20 03:12:24;;;;;;;12.82;7.55;;;-0.60;99.90;;;;;;5049197;28;20028;-80
2021/12/20 03:14:54;;;;;;;9.63;7.10;;;-0.50;99.90;;;;;;5049271;28;20018;-79
2021/12/20 03:17:20;;;;;;;11.05;6.60;;;-0.50;99.90;;;;;;5049882;28;20016;-79
2021/12/20 03:19:46;;;;;;;8.52;6.65;;;-0.50;99.90;;;;;;5049034;28;20386;-81
2021/12/20 03:22:11;;;;;;;8.13;5.93;;;-0.50;99.90;;;;;;5048652;28;20128;-80
2021/12/20 03:24:37;;;;;;;11.20;5.40;;;-0.50;99.90;;;;;;5048797;28;20033;-80
2021/12/20 03:27:04;;;;;;;13.13;6.45;;;-0.50;99.90;;;;;;5049973;28;20511;-81
2021/12/20 03:29:29;;;;;;;10.73;6.43;;;-0.50;99.90;;;;;;5048650;28;20152;-79
2021/12/20 03:31:55;;;;;;;8.00;6.28;;;-0.50;99.90;;;;;;5048872;28;20013;-80
2021/12/20 03:34:22;;;;;;;10.63;6.47;;;-0.50;99.90;;;;;;5048589;28;20485;-80
2021/12/20 03:36:47;;;;;;;7.50;5.57;;;-0.50;99.90;;;;;;5048728;28;20017;-80
2021/12/20 03:39:13;;;;;;;8.07;6.88;;;-0.50;99.90;;;;;;5049902;28;20032;-80
2021/12/20 03:41:39;;;;;;;8.52;6.35;;;-0.50;99.90;;;;;;5048768;28;20033;-79
2021/12/20 03:44:06;;;;;;;8.93;6.38;;;-0.50;99.90;;;;;;5048751;28;20044;-79
2021/12/20 03:46:33;;;;;;;9.23;5.53;;;-0.50;99.90;;;;;;5047132;28;20049;-80
2021/12/20 03:48:59;;;;;;;7.53;5.80;;;-0.50;99.90;;;;;;5030526;28;20021;-79
2021/12/20 03:51:25;;;;;;;9.55;6.05;;;-0.50;99.90;;;;;;5048635;28;20025;-80
2021/12/20 03:53:51;;;;;;;7.13;4.88;;;-0.50;99.90;;;;;;5041763;28;20022;-79
2021/12/20 03:56:16;;;;;;;8.90;5.97;;;-0.50;99.90;;;;;;5028635;28;20028;-80
2021/12/20 03:58:42;;;;;;;5.82;4.93;;;-0.50;99.90;;;;;;5028739;28;20024;-79
2021/12/20 04:01:11;;;;;;;7.25;4.85;;;-0.50;99.90;;;;;;5028365;28;20109;-79
2021/12/20 04:03:37;;;;;;;8.52;5.00;;;-0.50;99.90;;;;;;5028447;28;20022;-79
2021/12/20 04:06:05;;;;;;;10.85;4.82;;;-0.50;99.90;;;;;;5028275;28;20041;-80
2021/12/20 04:08:31;;;;;;;6.85;5.05;;;-0.50;99.90;;;;;;5049397;28;20363;-80
2021/12/20 04:10:58;;;;;;;8.65;5.70;;;-0.50;99.90;;;;;;5049453;28;20108;-80
2021/12/20 04:13:27;;;;;;;6.53;4.40;;;-0.50;99.90;;;;;;5048080;28;20031;-80
2021/12/20 04:15:53;;;;;;;6.95;5.18;;;-0.50;99.90;;;;;;5049636;28;20057;-80
2021/12/20 04:18:20;;;;;;;10.93;4.93;;;-0.50;99.90;;;;;;5049546;28;20382;-80
2021/12/20 04:20:45;;;;;;;6.40;5.28;;;-0.50;99.90;;;;;;5048254;28;20021;-80
2021/12/20 04:23:11;;;;;;;7.90;4.45;;;-0.50;99.90;;;;;;5049253;28;20044;-80
2021/12/20 04:25:36;;;;;;;6.32;4.35;;;-0.50;99.90;;;;;;5047686;28;20108;-80
2021/12/20 04:28:02;;;;;;;9.07;4.72;;;-0.50;99.90;;;;;;5049827;28;20485;-80
2021/12/20 04:30:30;;;;;;;4.95;3.78;;;-0.50;99.90;;;;;;5038552;28;20029;-80
2021/12/20 04:32:56;;;;;;;9.30;5.85;;;-0.60;99.90;;;;;;5029225;28;20022;-80
2021/12/20 04:35:22;;;;;;;9.02;5.90;;;-0.50;99.90;;;;;;5031167;28;20538;-80
2021/12/20 04:37:49;;;;;;;11.25;6.10;;;-0.50;99.90;;;;;;5031511;28;20108;-79
2021/12/20 04:40:21;;;;;;;6.13;4.82;;;-0.60;99.90;;;;;;5033198;28;20022;-79
2021/12/20 04:42:50;;;;;;;8.05;4.97;;;-0.50;99.90;;;;;;5032882;28;20116;-80
2021/12/20 04:45:16;;;;;;;5.50;4.60;;;-0.60;99.90;;;;;;5031615;28;20037;-80
2021/12/20 04:47:42;;;;;;;6.72;4.55;;;-0.60;99.90;;;;;;5031591;28;20029;-80
2021/12/20 04:50:08;;;;;;;9.00;5.95;;;-0.60;99.90;;;;;;5031506;28;20028;-80
2021/12/20 04:52:34;;;;;;;6.35;4.35;;;-0.60;99.90;;;;;;5032820;28;20022;-81
2021/12/20 04:55:00;;;;;;;5.35;4.53;;;-0.60;99.90;;;;;;5031443;28;20079;-80
2021/12/20 04:57:26;;;;;;;9.30;4.93;;;-0.60;99.90;;;;;;5031392;28;20025;-80
2021/12/20 04:59:51;;;;;;;8.73;4.68;;;-0.60;99.90;;;;;;5032469;28;20022;-80
2021/12/20 05:02:17;;;;;;;6.38;4.78;;;-0.60;99.90;;;;;;5031103;28;20040;-80
2021/12/20 05:04:42;;;;;;;6.00;4.55;;;-0.70;99.90;;;;;;5031088;28;20029;-80
2021/12/20 05:07:09;;;;;;;8.85;5.20;;;-0.70;99.90;;;;;;5032239;28;20040;-80
2021/12/20 05:09:39;;;;;;;5.35;3.63;;;-0.70;99.90;;;;;;5031114;28;20453;-80
2021/12/20 05:12:13;;;;;;;8.80;4.85;;;-0.70;99.90;;;;;;5032356;28;20492;-79
2021/12/20 05:14:40;;;;;;;9.73;4.72;;;-0.70;99.90;;;;;;5032295;28;20022;-79
2021/12/20 05:17:08;;;;;;;9.82;5.07;;;-0.70;99.90;;;;;;5031176;28;20376;-80
2021/12/20 05:19:34;;;;;;;7.90;5.28;;;-0.70;99.90;;;;;;5031013;28;20022;-80
2021/12/20 05:21:59;;;;;;;10.68;6.25;;;-0.70;99.90;;;;;;5032067;28;20398;-81
2021/12/20 05:24:25;;;;;;;10.38;4.55;;;-0.70;99.90;;;;;;5030779;28;20116;-80
2021/12/20 05:26:51;;;;;;;8.55;5.15;;;-0.70;99.90;;;;;;5030942;28;20100;-80
2021/12/20 05:29:17;;;;;;;13.60;6.07;;;-0.70;99.90;;;;;;5031912;28;20026;-79
2021/12/20 05:31:43;;;;;;;11.35;6.18;;;-0.70;99.90;;;;;;5031845;28;20032;-80
2021/12/20 05:34:09;;;;;;;8.65;5.40;;;-0.70;99.90;;;;;;5032095;28;20021;-80
2021/12/20 05:36:34;;;;;;;13.15;5.85;;;-0.70;99.90;;;;;;5030932;28;20154;-80
2021/12/20 05:39:00;;;;;;;7.97;5.57;;;-0.70;99.90;;;;;;5030576;28;20018;-80
2021/12/20 05:41:26;;;;;;;9.15;5.47;;;-0.70;99.90;;;;;;5030645;28;20510;-80
2021/12/20 05:43:51;;;;;;;10.05;7.18;;;-0.70;99.90;;;;;;5030608;28;20546;-80
2021/12/20 05:46:17;;;;;;;12.30;6.00;;;-0.70;99.90;;;;;;5029511;28;20022;-80
2021/12/20 05:48:42;;;;;;;8.75;6.28;;;-0.80;99.90;;;;;;5031920;28;20029;-80
2021/12/20 05:51:08;;;;;;;7.82;6.43;;;-0.80;99.90;;;;;;5031699;28;20382;-80
2021/12/20 05:53:34;;;;;;;10.50;6.07;;;-0.70;99.90;;;;;;5031827;28;20025;-80
2021/12/20 05:55:59;;;;;;;7.90;5.60;;;-0.80;99.90;;;;;;5031778;28;20079;-80
2021/12/20 05:58:25;;;;;;;9.52;5.85;;;-0.80;99.90;;;;;;5031769;28;20025;-80
2021/12/20 06:00:50;;;;;;;9.48;6.78;;;-0.80;99.90;;;;;;5030469;28;20021;-80
2021/12/20 06:03:16;;;;;;;13.57;6.97;;;-0.70;99.90;;;;;;5031615;28;20440;-80
2021/12/20 06:05:42;;;;;;;10.07;6.55;;;-0.80;99.90;;;;;;5030325;28;20026;-80
2021/12/20 06:08:09;;;;;;;11.65;8.57;;;-0.80;99.90;;;;;;5030406;28;20116;-81
2021/12/20 06:10:35;;;;;;;9.18;6.05;;;-0.70;99.90;;;;;;5031540;28;20379;-80
2021/12/20 06:13:04;;;;;;;14.45;7.07;;;-0.70;99.90;;;;;;5039856;28;20048;-80
2021/12/20 06:15:30;;;;;;;80.57;40.28;;;-0.80;99.90;;;;;;5051027;27;20115;-80
2021/12/20 06:17:57;;;;;;;96.68;49.90;;;-0.80;99.90;;;;;;5111828;27;20141;-80
2021/12/20 06:20:23;;;;;;;33.60;18.08;;;-0.80;99.90;;;;;;5152805;27;20022;-79
2021/12/20 06:22:49;;;;;;;29.27;15.13;;;-0.80;99.90;;;;;;5154567;27;20031;-80
2021/12/20 06:25:15;;;;;;;62.28;33.50;;;-0.80;99.90;;;;;;5154839;27;20109;-80
2021/12/20 06:27:42;;;;;;;56.10;29.23;;;-0.80;99.90;;;;;;5154922;27;20019;-80
2021/12/20 06:30:09;;;;;;;210.35;81.00;;;-0.80;99.90;;;;;;5154821;27;20105;-81
2021/12/20 06:32:39;;;;;;;220.30;90.07;;;-0.70;99.90;;;;;;5156066;27;20027;-80
2021/12/20 06:35:06;;;;;;;449.73;183.82;;;-0.70;99.90;;;;;;5154736;27;20014;-80
2021/12/20 06:37:32;;;;;;;53.83;24.48;;;-0.70;99.90;;;;;;5155071;27;20050;-79
2021/12/20 06:39:59;;;;;;;587.25;278.70;;;-0.80;99.90;;;;;;5153891;27;20113;-79
2021/12/20 06:42:25;;;;;;;135.48;66.63;;;-0.70;99.90;;;;;;5112946;27;20476;-79
2021/12/20 06:44:51;;;;;;;66.25;35.30;;;-0.70;99.90;;;;;;5043248;28;20040;-80
2021/12/20 06:47:18;;;;;;;133.75;70.32;;;-0.70;99.90;;;;;;5072866;27;20031;-80
2021/12/20 06:49:44;;;;;;;165.48;84.43;;;-0.70;99.90;;;;;;5045054;27;20076;-80
2021/12/20 06:52:10;;;;;;;210.27;94.80;;;-0.70;99.90;;;;;;5060258;27;20017;-79
2021/12/20 06:54:36;;;;;;;255.30;113.43;;;-0.70;99.90;;;;;;5045122;28;20578;-79
2021/12/20 06:57:03;;;;;;;281.00;127.25;;;-0.70;99.90;;;;;;5045168;28;20078;-79
2021/12/20 06:59:28;;;;;;;273.80;111.88;;;-0.70;99.90;;;;;;5045061;28;20025;-79
2021/12/20 07:01:54;;;;;;;145.43;55.45;;;-0.70;99.90;;;;;;5096779;27;20373;-79
2021/12/20 07:04:20;;;;;;;360.63;136.77;;;-0.70;99.90;;;;;;5102086;27;20210;-79
2021/12/20 07:06:46;;;;;;;72.53;31.10;;;-0.70;99.90;;;;;;5102264;27;20112;-79
2021/12/20 07:09:12;;;;;;;77.07;35.13;;;-0.70;99.90;;;;;;5047214;28;20022;-79
2021/12/20 07:11:40;;;;;;;156.30;68.30;;;-0.70;99.90;;;;;;5122625;27;20022;-79
2021/12/20 07:14:07;;;;;;;53.15;23.52;;;-0.70;99.90;;;;;;5104116;27;20016;-79
2021/12/20 07:16:34;;;;;;;77.80;33.85;;;-0.70;99.90;;;;;;5048804;28;20038;-79
2021/12/20 07:19:00;;;;;;;56.03;27.55;;;-0.60;99.90;;;;;;5121417;27;20027;-79
2021/12/20 07:21:26;;;;;;;109.78;44.20;;;-0.60;99.90;;;;;;5048510;27;20025;-79
2021/12/20 07:23:52;;;;;;;42.38;20.10;;;-0.60;99.90;;;;;;5104006;27;20019;-79
2021/12/20 07:26:17;;;;;;;85.97;35.20;;;-0.60;99.90;;;;;;5047881;28;20381;-79
2021/12/20 07:28:44;;;;;;;52.97;25.33;;;-0.60;99.90;;;;;;5051828;27;20467;-79
2021/12/20 07:31:14;;;;;;;26.65;13.60;;;-0.60;99.90;;;;;;5087372;27;20015;-79
2021/12/20 07:33:40;;;;;;;29.77;15.32;;;-0.60;99.90;;;;;;5048619;28;20021;-79
2021/12/20 07:36:06;;;;;;;50.50;22.23;;;-0.60;99.90;;;;;;5043104;27;20037;-79
2021/12/20 07:38:33;;;;;;;54.22;25.70;;;-0.50;99.90;;;;;;5045990;28;20021;-79
2021/12/20 07:41:01;;;;;;;74.45;33.85;;;-0.60;99.90;;;;;;5045066;28;20037;-80
2021/12/20 07:43:27;;;;;;;47.50;21.95;;;-0.60;99.90;;;;;;5064233;27;20484;-79
2021/12/20 07:45:53;;;;;;;56.95;26.35;;;-0.60;99.90;;;;;;5102792;27;20039;-79
2021/12/20 07:48:20;;;;;;;103.03;41.60;;;-0.50;99.90;;;;;;5117936;27;20034;-79
2021/12/20 07:50:47;;;;;;;66.38;32.38;;;-0.60;99.90;;;;;;5123124;27;20038;-79
2021/12/20 07:53:14;;;;;;;55.08;26.38;;;-0.60;99.90;;;;;;5047654;28;20029;-79
2021/12/20 07:55:40;;;;;;;60.92;26.50;;;-0.60;99.90;;;;;;5045970;28;20039;-79
2021/12/20 07:58:06;;;;;;;20.30;13.48;;;-0.60;99.90;;;;;;5045298;28;20025;-80
2021/12/20 08:00:32;;;;;;;30.33;16.33;;;-0.60;99.90;;;;;;5083949;27;20353;-79
2021/12/20 08:02:57;;;;;;;24.73;15.63;;;-0.50;99.90;;;;;;5044196;28;20029;-80
2021/12/20 08:05:28;;;;;;;18.45;12.05;;;-0.50;99.90;;;;;;5099726;27;20031;-80
2021/12/20 08:07:55;;;;;;;20.35;11.77;;;-0.50;99.90;;;;;;5044890;28;20490;-80
2021/12/20 08:10:27;;;;;;;25.20;13.23;;;-0.50;99.90;;;;;;5044051;27;20033;-80
2021/12/20 08:12:53;;;;;;;23.17;14.98;;;-0.50;99.90;;;;;;5079209;28;20011;-79
2021/12/20 08:15:21;;;;;;;26.63;14.50;;;-0.50;99.90;;;;;;5044306;28;20529;-81
2021/12/20 08:17:47;;;;;;;30.02;17.35;;;-0.50;99.90;;;;;;5044227;28;20022;-79
2021/12/20 08:20:13;;;;;;;30.92;17.92;;;-0.50;99.90;;;;;;5043322;28;20033;-80
2021/12/20 08:22:40;;;;;;;51.17;26.65;;;-0.50;99.90;;;;;;5041418;28;20037;-80
2021/12/20 08:25:06;;;;;;;29.95;17.88;;;-0.50;99.90;;;;;;5042841;28;20096;-81
2021/12/20 08:27:32;;;;;;;55.97;28.90;;;-0.50;99.90;;;;;;5044055;28;20032;-79
2021/12/20 08:29:58;;;;;;;25.17;14.73;;;-0.40;99.90;;;;;;5043017;28;20025;-80
2021/12/20 08:32:24;;;;;;;46.38;22.65;;;-0.50;99.90;;;;;;5064086;28;20045;-79
2021/12/20 08:34:49;;;;;;;25.17;13.57;;;-0.50;99.90;;;;;;5045656;28;20025;-81
2021/12/20 08:37:15;;;;;;;32.33;16.05;;;-0.50;99.90;;;;;;5047303;28;20030;-79
2021/12/20 08:39:41;;;;;;;21.40;11.93;;;-0.50;99.90;;;;;;5043960;28;20363;-80
2021/12/20 08:42:07;;;;;;;27.98;15.82;;;-0.50;99.90;;;;;;5042871;28;20049;-79
2021/12/20 08:44:33;;;;;;;35.72;19.65;;;-0.50;99.90;;;;;;5043501;28;20033;-80
2021/12/20 08:47:00;;;;;;;40.08;21.85;;;-0.50;99.90;;;;;;5046848;28;20037;-80
2021/12/20 08:49:25;;;;;;;23.23;13.45;;;-0.50;99.90;;;;;;5043611;28;20099;-79
2021/12/20 08:51:53;;;;;;;32.85;18.10;;;-0.50;99.90;;;;;;5043745;28;20531;-80
2021/12/20 08:54:19;;;;;;;40.15;21.73;;;-0.50;99.90;;;;;;5064415;27;20375;-79
2021/12/20 08:56:44;;;;;;;28.40;17.13;;;-0.40;99.90;;;;;;5038419;28;20390;-79
2021/12/20 08:59:10;;;;;;;49.90;24.48;;;-0.40;99.90;;;;;;5048568;28;20112;-80
2021/12/20 09:01:36;;;;;;;19.60;12.25;;;-0.40;99.90;;;;;;5047211;28;20037;-80
2021/12/20 09:04:06;;;;;;;24.98;14.25;;;-0.40;99.90;;;;;;5040283;28;20060;-79
2021/12/20 09:06:34;;;;;;;41.03;19.80;;;-0.40;99.90;;;;;;5082024;27;20037;-80
2021/12/20 09:09:00;;;;;;;38.78;19.70;;;-0.40;99.90;;;;;;5048193;28;20025;-80
2021/12/20 09:11:26;;;;;;;30.40;16.50;;;-0.50;99.90;;;;;;5047611;28;20029;-80
2021/12/20 09:13:52;;;;;;;25.85;13.23;;;-0.50;99.90;;;;;;5046607;28;20025;-80
2021/12/20 09:16:18;;;;;;;86.20;42.40;;;-0.40;99.90;;;;;;5065839;28;20073;-79
2021/12/20 09:18:43;;;;;;;33.78;16.38;;;-0.40;99.90;;;;;;5115582;28;20016;-79
2021/12/20 09:21:10;;;;;;;40.55;20.25;;;-0.50;99.90;;;;;;5048690;27;20025;-78
2021/12/20 09:23:37;;;;;;;15.23;9.30;;;-0.40;99.90;;;;;;5105266;27;20429;-79
2021/12/20 09:26:03;;;;;;;31.23;17.02;;;-0.50;99.90;;;;;;5049258;28;20501;-80
2021/12/20 09:28:29;;;;;;;42.22;22.27;;;-0.40;99.90;;;;;;5049367;28;20057;-80
2021/12/20 09:30:55;;;;;;;20.23;11.98;;;-0.40;99.90;;;;;;5049116;28;20452;-80
2021/12/20 09:33:21;;;;;;;17.05;10.05;;;-0.40;99.90;;;;;;5051675;27;20029;-80
2021/12/20 09:35:47;;;;;;;25.90;14.35;;;-0.40;99.90;;;;;;5051854;28;21091;-79
2021/12/20 09:38:16;;;;;;;22.00;11.02;;;-0.40;99.90;;;;;;5050760;27;20147;-79
2021/12/20 09:41:01;;;;;;;29.42;15.48;;;-0.40;99.90;;;;;;5047712;28;20397;-79
2021/12/20 09:43:28;;;;;;;17.90;10.30;;;-0.40;99.90;;;;;;5047424;28;20029;-79
2021/12/20 09:45:56;;;;;;;20.90;13.30;;;-0.40;99.90;;;;;;5123966;27;20064;-79
2021/12/20 09:48:21;;;;;;;19.65;10.63;;;-0.40;99.90;;;;;;5051743;27;20028;-80
2021/12/20 09:50:47;;;;;;;12.88;9.05;;;-0.40;99.90;;;;;;5069624;27;20025;-79
2021/12/20 09:53:14;;;;;;;11.32;7.95;;;-0.40;99.90;;;;;;5076088;27;20074;-80
2021/12/20 09:55:45;;;;;;;18.55;10.13;;;-0.50;99.90;;;;;;5067032;27;20022;-79
2021/12/20 09:58:11;;;;;;;17.98;11.25;;;-0.50;99.90;;;;;;5062331;27;20026;-79
2021/12/20 10:00:37;;;;;;;17.25;10.45;;;-0.50;99.90;;;;;;5043924;27;20041;-80
2021/12/20 10:03:03;;;;;;;20.83;11.80;;;-0.50;99.90;;;;;;5045335;27;20021;-80
2021/12/20 10:05:30;;;;;;;20.13;10.88;;;-0.50;99.90;;;;;;5046175;27;20025;-79
2021/12/20 10:07:58;;;;;;;11.43;9.10;;;-0.50;99.90;;;;;;5039182;27;20033;-81
2021/12/20 10:10:53;;;;;;;12.55;8.75;;;-0.50;99.90;;;;;;5035045;27;20024;-79
2021/12/20 10:13:39;;;;;;;10.02;7.22;;;-0.50;99.90;;;;;;5047159;28;20029;-79
2021/12/20 10:16:18;;;;;;;13.40;8.48;;;-0.60;99.90;;;;;;5037316;28;20407;-79
2021/12/20 10:18:44;;;;;;;10.73;6.82;;;-0.60;99.90;;;;;;5036794;28;20033;-79
2021/12/20 10:21:10;;;;;;;10.70;7.55;;;-0.50;99.90;;;;;;5041071;28;20100;-79
2021/12/20 10:23:45;;;;;;;10.15;8.02;;;-0.50;99.90;;;;;;5037102;28;20135;-79
2021/12/20 10:26:19;;;;;;;14.68;9.00;;;-0.50;99.90;;;;;;5034013;28;20017;-80
2021/12/20 10:28:46;;;;;;;12.27;7.93;;;-0.50;99.90;;;;;;5035847;28;20167;-80
2021/12/20 10:31:17;;;;;;;13.52;9.45;;;-0.50;99.90;;;;;;5035766;28;20243;-80
2021/12/20 10:33:57;;;;;;;9.27;6.97;;;-0.50;99.90;;;;;;5037369;28;20035;-80
2021/12/20 10:36:23;;;;;;;13.52;8.50;;;-0.50;99.90;;;;;;5033864;28;20018;-80
2021/12/20 10:38:56;;;;;;;12.35;8.60;;;-0.40;99.90;;;;;;5032355;28;20150;-80
2021/12/20 10:41:49;;;;;;;13.25;8.45;;;-0.40;99.90;;;;;;5033252;28;20467;-80
2021/12/20 10:44:17;;;;;;;14.25;8.23;;;-0.40;99.90;;;;;;5034627;28;20029;-80
2021/12/20 10:47:01;;;;;;;14.63;9.05;;;-0.50;99.90;;;;;;5031454;28;20055;-80
2021/12/20 10:49:29;;;;;;;13.02;8.55;;;-0.50;99.90;;;;;;5036783;28;20025;-80
2021/12/20 10:51:55;;;;;;;15.63;9.00;;;-0.50;99.90;;;;;;5032931;28;20109;-80
2021/12/20 10:54:29;;;;;;;11.50;8.70;;;-0.50;99.90;;;;;;5034625;28;20021;-80
2021/12/20 10:57:01;;;;;;;15.50;9.20;;;-0.50;99.90;;;;;;5034570;28;20018;-80
2021/12/20 10:59:32;;;;;;;12.55;8.55;;;-0.50;99.90;;;;;;5034095;28;20024;-80
2021/12/20 11:05:12;;;;;;;17.55;10.13;;;-0.50;99.90;;;;;;5039104;28;20064;-80
2021/12/20 11:10:31;;;;;;;13.70;8.90;;;-0.50;99.90;;;;;;5007922;28;20041;-80
2021/12/20 11:12:58;;;;;;;12.75;9.68;;;-0.50;99.90;;;;;;5029332;28;20113;-80
2021/12/20 11:15:28;;;;;;;9.77;7.82;;;-0.50;99.90;;;;;;5030600;28;20026;-80
2021/12/20 11:17:54;;;;;;;10.07;6.18;;;-0.50;99.90;;;;;;5030707;28;20028;-80
2021/12/20 11:20:21;;;;;;;9.52;6.20;;;-0.50;99.90;;;;;;5029296;28;20120;-80
2021/12/20 11:22:47;;;;;;;11.30;7.18;;;-0.50;99.90;;;;;;5045756;28;20033;-80
2021/12/20 11:25:14;;;;;;;12.00;6.03;;;-0.40;99.90;;;;;;5040263;28;20112;-80
2021/12/20 11:27:46;;;;;;;10.23;6.65;;;-0.50;99.90;;;;;;5029080;28;20013;-80
2021/12/20 11:30:23;;;;;;;9.77;6.15;;;-0.40;99.90;;;;;;5030479;28;20108;-80
2021/12/20 11:32:49;;;;;;;9.70;6.65;;;-0.40;99.90;;;;;;5029113;28;20067;-80
2021/12/20 11:35:17;;;;;;;10.38;7.22;;;-0.40;99.90;;;;;;5029031;28;20029;-80
2021/12/20 11:37:43;;;;;;;9.38;6.30;;;-0.30;99.90;;;;;;5030323;28;20142;-80
2021/12/20 11:40:11;;;;;;;10.98;6.75;;;-0.30;99.90;;;;;;5030309;28;20104;-80
2021/12/20 11:42:37;;;;;;;12.82;8.38;;;-0.30;99.90;;;;;;5029913;28;20125;-80
2021/12/20 11:45:06;;;;;;;11.45;7.03;;;-0.20;99.90;;;;;;5029498;28;20066;-80
2021/12/20 11:48:08;;;;;;;11.52;7.13;;;-0.20;99.90;;;;;;5028834;28;20039;-80
2021/12/20 11:50:37;;;;;;;11.82;7.07;;;-0.20;99.90;;;;;;5043403;28;20032;-80
2021/12/20 11:53:11;;;;;;;15.93;7.65;;;-0.20;99.90;;;;;;5039855;28;20017;-80
2021/12/20 11:55:43;;;;;;;14.63;8.25;;;-0.20;99.90;;;;;;5043636;28;20080;-80
2021/12/20 11:58:23;;;;;;;17.67;10.00;;;-0.30;99.90;;;;;;5049627;28;20017;-80
2021/12/20 12:00:54;;;;;;;11.77;8.07;;;-0.20;99.90;;;;;;5032720;28;20264;-80
2021/12/20 12:03:29;;;;;;;13.50;8.35;;;-0.30;99.90;;;;;;5029827;28;20113;-80
2021/12/20 12:06:03;;;;;;;10.65;6.85;;;-0.30;99.90;;;;;;5029771;28;20030;-80
2021/12/20 12:08:28;;;;;;;10.70;7.30;;;-0.40;99.90;;;;;;5028663;28;20026;-80
2021/12/20 12:11:14;;;;;;;10.55;7.78;;;-0.40;99.90;;;;;;5035701;28;20040;-80
2021/12/20 12:14:00;;;;;;;12.77;7.80;;;-0.40;99.90;;;;;;5053202;28;20060;-81
2021/12/20 12:17:01;;;;;;;11.40;7.57;;;-0.40;99.90;;;;;;5048643;28;20044;-80
2021/12/20 12:19:45;;;;;;;17.95;8.05;;;-0.40;99.90;;;;;;5049528;28;20028;-80
2021/12/20 12:22:30;;;;;;;8.40;6.28;;;-0.40;99.90;;;;;;5049367;28;20486;-80
2021/12/20 12:24:56;;;;;;;11.05;7.38;;;-0.50;99.90;;;;;;5047990;27;20025;-80
2021/12/20 12:27:30;;;;;;;10.02;6.53;;;-0.50;99.90;;;;;;5048385;28;20048;-80
2021/12/20 12:30:11;;;;;;;11.50;6.85;;;-0.40;99.90;;;;;;5049644;28;20385;-80
2021/12/20 12:32:37;;;;;;;11.10;7.10;;;-0.40;99.90;;;;;;5045895;27;20125;-80
2021/12/20 12:35:03;;;;;;;10.25;6.72;;;-0.40;99.90;;;;;;5038379;27;20041;-80
2021/12/20 12:37:34;;;;;;;11.63;5.65;;;-0.40;99.90;;;;;;5034698;28;20028;-80
2021/12/20 12:40:23;;;;;;;13.02;7.28;;;-0.40;99.90;;;;;;5033635;28;20021;-80
2021/12/20 12:42:54;;;;;;;13.60;8.07;;;-0.40;99.90;;;;;;5030054;28;20060;-80
2021/12/20 12:45:52;;;;;;;14.30;7.20;;;-0.40;99.90;;;;;;5030605;28;20042;-80
2021/12/20 12:48:38;;;;;;;14.52;7.82;;;-0.40;99.90;;;;;;5040223;28;20028;-80
2021/12/20 12:51:47;;;;;;;11.27;7.10;;;-0.40;99.90;;;;;;5032315;28;20021;-79
2021/12/20 12:54:32;;;;;;;17.13;8.00;;;-0.40;99.90;;;;;;5035805;28;20029;-79